CBBC - Bella Bella/Campbell Island

Pirep is a free, collaborative database of all public and private airports located within the United States. All pilots are welcome to contribute, edit, and improve any airport they have local knowledge about, no registration required.
Are you familiar with this airport? Help out other pilots by adding your local knowledge.
Uploaded photos will be licensed under a CC BY-SA 4.0 license. Please only upload photos you have the rights to use.
Tags
Private
Undocu­mented
METAR / TAF
Webcam
Edit Tags
Food
Camping
Lodging
Car Rental
Bicycles
Swimming
Golfing
Fishing
Hot Springs
Museum
Flying Clubs
Airpark
Upcoming Events
No upcoming events. Is anything happening here soon?
*
*
*

Where exactly on/near the airport is this event taking place?

Is there a webpage with more information for this event?

Who should be contacted for more information?

What is this event all about?

Repeat every
Description
Transient Parking
Fuel Location
Landing & Tie-down Fees
Crew Car Availability
Flying Clubs
WiFi Access
Airport Statistics
Location: Bella Bella, CN
Elevation: 141ft
Activation date: Sep 2005
Fuel: 100LL, A (prices)
Runway 13/31: 3,697ft
Access: Private to everyone
Is this airport privately owned but open to the public with or without restrictions? Or perhaps the owner is simply happy for pilots to stop by with prior permission?
Current Weather — MVFR
  • Weather data is strictly informational and not for flight planning purposes.
  • METAR
    2024-07-21 20:00:00 PDT
    Ceiling Wind Temperature Dewpoint Weather Visbility
    2,500ft 330° @ 3kt 62°F 57°F N/A 9SM
    Clouds: Broken @ 2,500ft, Overcast @ 3,200ft
    Raw: CBBC 220300Z AUTO 33003KT 280V040 9SM BKN025 OVC032 17/14 A3015 RMK SLP212
  • TAF
    2024-07-21 18:00:00 PDT – 2024-07-21 22:00:00 PDT
    Ceiling Wind Weather Visbility
    4,000ft Variable N/A 6SM
    Clouds: Scattered @ 2,000ft, Overcast @ 4,000ft
    Raw: TAF CBBC 220040Z 2201/2205 VRB03KT P6SM SCT020 OVC040 TEMPO 2201/2205 OVC020 RMK FCST BASED ON AUTO OBS. NXT FCST BY 221300Z
  • TAF
    2024-07-21 18:00:00 PDT – 2024-07-21 22:00:00 PDT
    Ceiling Wind Weather Visbility
    2,000ft ° @ kt N/A SM
    Clouds: Overcast @ 2,000ft
    Raw: TAF CBBC 220040Z 2201/2205 VRB03KT P6SM SCT020 OVC040 TEMPO 2201/2205 OVC020 RMK FCST BASED ON AUTO OBS. NXT FCST BY 221300Z
Click/tap to add an annotation marker to the map
Direct links to live image URLs will be displayed inline on this page. URLs to separate webpages will be linked to.
URL:
Direct links to live image URLs will be displayed inline on this page. URLs to separate webpages will be linked to.
URL:
Remarks
  • Ltd winter maintenance.
  • For attendance schedule call 250-957-2868.
Comments
Leave a comment What was your experience like at this airport?